Terminal Aerodrome Forecast
Issued by NWS

Home | Current Version | Previous Version | Text Only | Print | Product List | Glossary On
Versions: 1 2 3 4 5 6 7 8 9 10 11 12 13 14 15 16 17 18 19 20 21 22 23 24 25 26
000
FTUS45 KGJT 210521
TAFMTJ
TAF
KMTJ 210521Z 2106/2206 27013G30KT P6SM -SHRA OVC070
     FM210700 26008KT P6SM VCSH SCT060 BKN070
     FM211000 23006KT P6SM FEW070 SCT100
     FM211600 30006KT P6SM FEW050 SCT200
     FM212000 31010KT P6SM SKC
     FM220200 17006KT P6SM FEW140 SCT250=

USA.gov is the U.S. government's official web portal to all federal, state and local government web resources and services.